createdAt,value
2018-08-29T00:01:12.966Z,12.70
2018-08-29T00:03:41.512Z,12.50
2018-08-29T00:06:10.332Z,12.50
2018-08-29T00:08:43.830Z,12.40
2018-08-29T00:11:12.080Z,12.40
2018-08-29T00:13:40.322Z,12.30
2018-08-29T00:16:08.500Z,12.30
2018-08-29T00:18:36.728Z,12.30
2018-08-29T00:21:04.888Z,12.30
2018-08-29T00:23:33.086Z,12.30
2018-08-29T00:26:01.237Z,12.30
2018-08-29T00:28:29.399Z,12.30
2018-08-29T00:30:58.442Z,12.30
2018-08-29T00:33:26.617Z,12.30
2018-08-29T00:35:54.841Z,12.30
2018-08-29T00:38:23.241Z,12.30
2018-08-29T00:40:51.463Z,12.30
2018-08-29T00:43:19.690Z,12.30
2018-08-29T00:45:47.874Z,12.30
2018-08-29T00:48:16.449Z,12.40
2018-08-29T00:50:44.710Z,12.50
2018-08-29T00:53:12.910Z,12.60
2018-08-29T00:55:41.167Z,12.60
2018-08-29T00:58:09.439Z,12.70
2018-08-29T01:00:38.522Z,12.70
2018-08-29T01:03:06.715Z,12.80
2018-08-29T01:05:35.280Z,12.80
2018-08-29T01:08:03.574Z,12.80
2018-08-29T01:13:24.452Z,12.80
2018-08-29T01:15:53.086Z,12.80
2018-08-29T01:18:21.885Z,12.70
2018-08-29T01:20:50.081Z,12.70
2018-08-29T01:23:18.263Z,12.70
2018-08-29T01:25:46.935Z,12.70
2018-08-29T01:28:15.170Z,12.70
2018-08-29T01:30:43.400Z,12.70
2018-08-29T01:33:11.999Z,12.70
2018-08-29T01:35:40.174Z,12.70
2018-08-29T01:38:08.605Z,12.80
2018-08-29T01:40:36.823Z,12.80
2018-08-29T01:43:05.762Z,12.80
2018-08-29T01:45:33.910Z,12.80
2018-08-29T01:48:02.078Z,12.70
2018-08-29T01:50:30.273Z,12.70
2018-08-29T01:52:58.563Z,12.70
2018-08-29T01:55:26.941Z,12.60
2018-08-29T01:57:55.162Z,12.60
2018-08-29T02:00:23.382Z,12.60
2018-08-29T02:02:51.546Z,12.70
2018-08-29T02:05:19.720Z,12.70
2018-08-29T02:07:47.950Z,12.70
2018-08-29T02:10:16.126Z,12.70
2018-08-29T02:12:44.342Z,12.80
2018-08-29T02:15:12.517Z,12.80
2018-08-29T02:17:42.676Z,12.80
2018-08-29T02:20:11.550Z,12.70
2018-08-29T02:22:39.977Z,12.70
2018-08-29T02:25:08.173Z,12.70
2018-08-29T02:27:36.370Z,12.80
2018-08-29T02:30:05.355Z,12.70
2018-08-29T02:32:33.541Z,12.70
2018-08-29T02:35:02.287Z,12.70
2018-08-29T02:37:30.598Z,12.60
2018-08-29T02:39:58.794Z,12.50
2018-08-29T02:42:32.504Z,12.50
2018-08-29T02:45:01.758Z,12.60
2018-08-29T02:47:29.957Z,12.60
2018-08-29T02:49:58.194Z,12.60
2018-08-29T02:52:26.554Z,12.50
2018-08-29T02:54:58.343Z,12.50
2018-08-29T02:57:26.524Z,12.40
2018-08-29T02:59:54.790Z,12.40
2018-08-29T03:02:22.987Z,12.30
2018-08-29T03:04:51.134Z,12.30
2018-08-29T03:07:23.134Z,12.20
2018-08-29T03:09:52.276Z,12.20
2018-08-29T03:12:20.423Z,12.10
2018-08-29T03:14:48.621Z,12.10
2018-08-29T03:17:16.822Z,12.00
2018-08-29T03:19:45.057Z,12.00
2018-08-29T03:22:13.297Z,12.00
2018-08-29T03:24:41.492Z,12.00
2018-08-29T03:27:10.745Z,11.90
2018-08-29T03:29:38.935Z,11.90
2018-08-29T03:32:07.484Z,11.90
2018-08-29T03:34:35.670Z,11.90
2018-08-29T03:37:03.958Z,12.00
2018-08-29T03:39:32.176Z,12.00
2018-08-29T03:42:00.950Z,12.00
2018-08-29T03:44:29.119Z,11.80
2018-08-29T03:46:57.308Z,11.90
2018-08-29T03:49:25.510Z,12.00
2018-08-29T03:51:53.846Z,12.10
2018-08-29T03:54:22.238Z,12.10
2018-08-29T03:56:50.425Z,12.00
2018-08-29T03:59:19.195Z,11.90
2018-08-29T04:01:47.366Z,11.70
2018-08-29T04:04:15.568Z,11.70
2018-08-29T04:06:43.896Z,11.60
2018-08-29T04:09:12.409Z,11.50
2018-08-29T04:11:40.882Z,11.40
2018-08-29T04:14:09.916Z,11.30
2018-08-29T04:16:38.134Z,11.20
2018-08-29T04:19:06.710Z,11.20
2018-08-29T04:21:34.913Z,11.20
2018-08-29T04:24:03.118Z,11.10
2018-08-29T04:26:31.661Z,11.20
2018-08-29T04:29:00.153Z,11.20
2018-08-29T04:31:28.378Z,11.20
2018-08-29T04:33:56.692Z,11.20
2018-08-29T04:36:24.827Z,11.30
2018-08-29T04:38:52.963Z,11.30
2018-08-29T04:41:21.173Z,11.40
2018-08-29T04:43:50.869Z,11.50
2018-08-29T04:46:19.119Z,11.60
2018-08-29T04:48:47.632Z,11.70
2018-08-29T04:51:16.032Z,11.70
2018-08-29T04:53:44.221Z,11.70
2018-08-29T04:56:12.581Z,11.70
2018-08-29T04:58:40.839Z,11.80
2018-08-29T05:01:09.033Z,11.90
2018-08-29T05:03:38.143Z,12.00
2018-08-29T05:06:07.023Z,12.00
2018-08-29T05:08:35.379Z,12.10
2018-08-29T05:11:03.603Z,12.20
2018-08-29T05:13:31.793Z,12.20
2018-08-29T05:15:59.983Z,12.20
2018-08-29T05:18:28.214Z,12.30
2018-08-29T05:20:57.157Z,12.40
2018-08-29T05:23:25.335Z,12.50
2018-08-29T05:25:53.502Z,12.70
2018-08-29T05:28:21.720Z,12.70
2018-08-29T05:30:49.925Z,12.80
2018-08-29T05:33:19.729Z,12.90
2018-08-29T05:35:47.938Z,12.90
2018-08-29T05:38:16.150Z,13.00
2018-08-29T05:40:44.337Z,13.10
2018-08-29T05:43:12.542Z,13.20
2018-08-29T05:45:40.750Z,13.40
2018-08-29T05:48:09.231Z,13.50
2018-08-29T05:50:37.263Z,13.70
2018-08-29T05:53:05.678Z,13.90
2018-08-29T05:55:33.843Z,14.10
2018-08-29T05:58:02.060Z,14.30
2018-08-29T06:00:30.239Z,14.50
2018-08-29T06:02:58.442Z,14.70
2018-08-29T06:05:26.967Z,15.00
2018-08-29T06:07:55.141Z,15.40
2018-08-29T06:10:23.405Z,16.20
2018-08-29T06:12:51.640Z,17.20
2018-08-29T06:15:19.809Z,18.20
2018-08-29T06:17:48.050Z,19.10
2018-08-29T06:20:16.279Z,20.00
2018-08-29T06:22:44.478Z,20.60
2018-08-29T06:25:12.677Z,21.10
2018-08-29T06:27:41.936Z,21.50
2018-08-29T06:30:10.158Z,21.80
2018-08-29T06:32:38.482Z,21.80
2018-08-29T06:35:06.765Z,21.80
2018-08-29T06:37:35.151Z,21.80
2018-08-29T06:40:03.574Z,21.80
2018-08-29T06:42:31.778Z,21.90
2018-08-29T06:44:59.958Z,22.10
2018-08-29T06:47:28.190Z,22.10
2018-08-29T06:49:56.489Z,22.10
2018-08-29T06:52:25.089Z,22.00
2018-08-29T06:54:54.749Z,22.00
2018-08-29T06:57:23.066Z,22.40
2018-08-29T06:59:51.237Z,22.30
2018-08-29T07:02:19.705Z,22.00
2018-08-29T07:04:47.882Z,21.50
2018-08-29T07:07:16.076Z,21.20
2018-08-29T07:09:44.278Z,21.50
2018-08-29T07:12:12.489Z,21.80
2018-08-29T07:14:40.706Z,21.70
2018-08-29T07:17:08.894Z,21.90
2018-08-29T07:19:37.092Z,22.10
2018-08-29T07:22:05.321Z,22.30
2018-08-29T07:24:34.214Z,22.30
2018-08-29T07:27:02.614Z,22.70
2018-08-29T07:29:30.886Z,23.50
2018-08-29T07:31:58.974Z,23.60
2018-08-29T07:34:27.665Z,23.90
2018-08-29T07:36:55.856Z,24.50
2018-08-29T07:39:24.778Z,24.60
2018-08-29T07:41:52.940Z,25.20
2018-08-29T07:44:21.177Z,25.20
2018-08-29T07:46:49.337Z,25.10
2018-08-29T07:49:18.259Z,25.10
2018-08-29T07:51:50.571Z,25.10
2018-08-29T07:54:18.721Z,24.80
2018-08-29T07:56:47.126Z,24.90
2018-08-29T07:59:15.424Z,25.10
2018-08-29T08:01:44.474Z,25.10
2018-08-29T08:04:12.727Z,25.10
2018-08-29T08:06:41.246Z,24.90
2018-08-29T08:09:15.208Z,24.90
2018-08-29T08:11:43.527Z,25.30
2018-08-29T08:14:11.706Z,26.10
2018-08-29T08:16:39.956Z,26.90
2018-08-29T08:19:08.083Z,27.40
2018-08-29T08:21:36.248Z,27.60
2018-08-29T08:24:04.469Z,28.10
2018-08-29T08:26:32.653Z,28.40
2018-08-29T08:29:00.877Z,28.60
2018-08-29T08:31:29.100Z,28.80
2018-08-29T08:33:57.318Z,28.70
2018-08-29T08:36:25.493Z,28.30
2018-08-29T08:38:53.713Z,28.40
2018-08-29T08:41:21.909Z,28.60
2018-08-29T08:43:50.086Z,28.80
2018-08-29T08:46:18.417Z,29.40
2018-08-29T08:48:46.787Z,29.40
2018-08-29T08:51:14.993Z,29.60
2018-08-29T08:53:43.315Z,29.70
2018-08-29T08:56:11.533Z,29.70
2018-08-29T08:58:39.835Z,30.10
2018-08-29T09:01:10.099Z,30.00
2018-08-29T09:03:38.257Z,29.90
2018-08-29T09:06:06.443Z,29.60
2018-08-29T09:08:34.618Z,30.20
2018-08-29T09:11:03.007Z,30.50
2018-08-29T09:13:31.318Z,30.00
2018-08-29T09:15:59.525Z,29.40
2018-08-29T09:18:27.730Z,28.50
2018-08-29T09:20:55.949Z,28.70
2018-08-29T09:23:24.159Z,28.90
2018-08-29T09:25:52.334Z,29.70
2018-08-29T09:28:20.841Z,30.10
2018-08-29T09:30:49.244Z,30.00
2018-08-29T09:33:17.446Z,29.40
2018-08-29T09:35:45.638Z,29.20
2018-08-29T09:38:13.904Z,29.50
2018-08-29T09:40:42.170Z,30.00
2018-08-29T09:43:11.685Z,30.50
2018-08-29T09:45:39.831Z,30.70
2018-08-29T09:48:08.061Z,30.50
2018-08-29T09:50:36.287Z,29.80
2018-08-29T09:53:04.614Z,29.70
2018-08-29T09:55:32.826Z,29.80
2018-08-29T09:58:01.322Z,29.60
2018-08-29T10:00:34.866Z,29.60
2018-08-29T10:03:07.282Z,30.00
2018-08-29T10:05:35.451Z,30.20
2018-08-29T10:08:03.650Z,30.00
2018-08-29T10:10:31.933Z,30.30
2018-08-29T10:13:00.174Z,30.60
2018-08-29T10:15:28.539Z,30.70
2018-08-29T10:17:56.855Z,30.70
2018-08-29T10:20:25.106Z,30.60
2018-08-29T10:22:53.582Z,31.40
2018-08-29T10:25:21.735Z,31.90
2018-08-29T10:27:49.951Z,31.90
2018-08-29T10:30:18.661Z,32.00
2018-08-29T10:32:46.870Z,32.10
2018-08-29T10:35:15.081Z,32.10
2018-08-29T10:37:43.294Z,32.10
2018-08-29T10:40:11.453Z,31.90
2018-08-29T10:42:39.678Z,31.80
2018-08-29T10:45:14.520Z,32.70
2018-08-29T10:47:42.707Z,33.00
2018-08-29T10:50:10.899Z,33.40
2018-08-29T10:52:39.078Z,32.80
2018-08-29T10:55:07.275Z,32.70
2018-08-29T10:57:35.542Z,33.20
2018-08-29T11:00:03.726Z,33.80
2018-08-29T11:02:31.946Z,33.60
2018-08-29T11:05:00.458Z,33.00
2018-08-29T11:07:28.626Z,32.80
2018-08-29T11:09:56.830Z,32.90
2018-08-29T11:12:25.542Z,32.40
2018-08-29T11:14:53.750Z,33.00
2018-08-29T11:17:21.982Z,32.90
2018-08-29T11:19:50.163Z,32.50
2018-08-29T11:22:18.433Z,32.40
2018-08-29T11:24:46.537Z,32.80
2018-08-29T11:27:14.705Z,33.30
2018-08-29T11:29:42.879Z,33.50
2018-08-29T11:32:11.077Z,33.80
2018-08-29T11:34:39.321Z,33.60
2018-08-29T11:37:07.482Z,33.50
2018-08-29T11:39:35.694Z,33.20
2018-08-29T11:42:04.025Z,33.20
2018-08-29T11:44:33.194Z,33.10
2018-08-29T11:47:01.374Z,32.50
2018-08-29T11:49:29.630Z,32.40
2018-08-29T11:51:58.466Z,32.30
2018-08-29T11:54:26.902Z,32.10
2018-08-29T11:56:55.050Z,32.30
2018-08-29T11:59:23.257Z,32.50
2018-08-29T12:01:51.475Z,32.70
2018-08-29T12:04:19.677Z,32.80
2018-08-29T12:06:47.851Z,32.60
2018-08-29T12:09:16.085Z,32.50
2018-08-29T12:11:44.560Z,32.20
2018-08-29T12:14:12.738Z,32.00
2018-08-29T12:16:40.966Z,31.70
2018-08-29T12:19:09.092Z,31.50
2018-08-29T12:21:37.262Z,31.20
2018-08-29T12:24:05.530Z,31.00
2018-08-29T12:26:34.208Z,31.30
2018-08-29T12:29:02.438Z,31.30
2018-08-29T12:31:30.633Z,31.40
2018-08-29T12:33:59.649Z,31.70
2018-08-29T12:36:27.834Z,31.80
2018-08-29T12:38:56.063Z,31.60
2018-08-29T12:41:24.283Z,31.60
2018-08-29T12:43:52.545Z,32.00
2018-08-29T12:46:20.697Z,31.90
2018-08-29T12:48:49.002Z,31.80
2018-08-29T12:51:17.222Z,31.90
2018-08-29T12:53:45.450Z,31.90
2018-08-29T12:56:13.717Z,31.90
2018-08-29T12:58:41.978Z,31.60
2018-08-29T13:01:10.282Z,31.70
2018-08-29T13:03:38.515Z,31.80
2018-08-29T13:06:06.821Z,31.80
2018-08-29T13:08:37.393Z,31.90
2018-08-29T13:11:07.747Z,32.30
2018-08-29T13:13:35.937Z,32.80
2018-08-29T13:16:04.146Z,33.00
2018-08-29T13:18:32.499Z,33.20
2018-08-29T13:21:00.929Z,33.80
2018-08-29T13:23:30.863Z,34.10
2018-08-29T13:25:59.060Z,33.90
2018-08-29T13:28:27.241Z,33.20
2018-08-29T13:30:55.418Z,32.80
2018-08-29T13:33:23.586Z,32.40
2018-08-29T13:35:51.814Z,32.40
2018-08-29T13:38:19.989Z,32.50
2018-08-29T13:40:48.191Z,32.80
2018-08-29T13:43:16.486Z,32.70
2018-08-29T13:45:44.764Z,32.50
2018-08-29T13:48:14.887Z,32.60
2018-08-29T13:50:43.085Z,32.60
2018-08-29T13:53:11.437Z,32.70
2018-08-29T13:55:39.596Z,32.80
2018-08-29T13:58:07.854Z,32.70
2018-08-29T14:00:36.059Z,31.90
2018-08-29T14:03:04.271Z,31.50
2018-08-29T14:05:32.468Z,30.80
2018-08-29T14:08:00.679Z,30.50
2018-08-29T14:10:28.880Z,30.30
2018-08-29T14:12:57.277Z,30.10
2018-08-29T14:15:25.463Z,30.10
2018-08-29T14:17:53.631Z,30.20
2018-08-29T14:20:21.819Z,30.20
2018-08-29T14:22:49.989Z,30.00
2018-08-29T14:25:18.899Z,30.00
2018-08-29T14:27:47.646Z,30.20
2018-08-29T14:30:16.489Z,30.20
2018-08-29T14:32:44.777Z,30.20
2018-08-29T14:35:12.990Z,30.10
2018-08-29T14:37:42.814Z,29.70
2018-08-29T14:40:11.001Z,29.60
2018-08-29T14:42:39.337Z,29.50
2018-08-29T14:45:07.559Z,29.20
2018-08-29T14:47:35.755Z,28.60
2018-08-29T14:50:03.934Z,28.00
2018-08-29T14:52:32.135Z,27.50
2018-08-29T14:55:00.571Z,27.00
2018-08-29T14:57:30.043Z,26.60
2018-08-29T15:02:16.756Z,26.00
2018-08-29T15:04:46.176Z,25.50
2018-08-29T15:07:14.504Z,24.40
2018-08-29T15:09:43.094Z,23.80
2018-08-29T15:12:11.987Z,23.50
2018-08-29T15:14:40.378Z,23.30
2018-08-29T15:17:08.745Z,23.10
2018-08-29T15:19:36.923Z,23.00
2018-08-29T15:22:05.277Z,23.00
2018-08-29T15:24:33.363Z,22.90
2018-08-29T15:27:01.558Z,22.90
2018-08-29T15:29:30.169Z,22.80
2018-08-29T15:31:58.342Z,22.50
2018-08-29T15:34:26.524Z,22.00
2018-08-29T15:36:54.720Z,21.70
2018-08-29T15:39:22.912Z,21.50
2018-08-29T15:41:51.113Z,21.60
2018-08-29T15:44:19.315Z,21.80
2018-08-29T15:46:47.494Z,22.00
2018-08-29T15:49:16.302Z,22.20
2018-08-29T15:51:44.386Z,22.20
2018-08-29T15:54:12.588Z,22.20
2018-08-29T15:56:41.326Z,22.10
2018-08-29T15:59:09.499Z,22.00
2018-08-29T16:01:37.668Z,21.90
2018-08-29T16:04:05.895Z,21.80
2018-08-29T16:06:34.061Z,21.70
2018-08-29T16:09:02.267Z,21.60
2018-08-29T16:11:30.512Z,21.60
2018-08-29T16:13:59.217Z,21.60
2018-08-29T16:16:27.468Z,21.50
2018-08-29T16:18:55.622Z,21.40
2018-08-29T16:21:23.799Z,21.40
2018-08-29T16:23:52.062Z,21.30
2018-08-29T16:26:20.191Z,21.30
2018-08-29T16:28:48.424Z,21.40
2018-08-29T16:31:17.934Z,21.50
2018-08-29T16:33:46.899Z,21.70
2018-08-29T16:36:15.031Z,21.90
2018-08-29T16:38:43.234Z,22.00
2018-08-29T16:41:11.433Z,22.20
2018-08-29T16:43:39.597Z,22.30
2018-08-29T16:46:08.617Z,22.40
2018-08-29T16:48:36.766Z,22.50
2018-08-29T16:51:04.967Z,22.60
2018-08-29T16:53:33.162Z,22.70
2018-08-29T16:56:01.341Z,22.70
2018-08-29T16:58:29.514Z,22.60
2018-08-29T17:00:57.699Z,22.60
2018-08-29T17:03:25.907Z,22.50
2018-08-29T17:05:54.409Z,22.40
2018-08-29T17:08:22.568Z,22.30
2018-08-29T17:10:50.937Z,22.30
2018-08-29T17:13:19.157Z,22.20
2018-08-29T17:15:47.357Z,22.10
2018-08-29T17:18:15.813Z,22.00
2018-08-29T17:20:44.062Z,22.00
2018-08-29T17:23:12.146Z,21.90
2018-08-29T17:25:40.400Z,21.80
2018-08-29T17:28:08.608Z,21.70
2018-08-29T17:30:36.810Z,21.60
2018-08-29T17:33:05.933Z,21.50
2018-08-29T17:35:34.078Z,21.40
2018-08-29T17:38:02.281Z,21.30
2018-08-29T17:40:30.474Z,21.20
2018-08-29T17:42:58.672Z,21.10
2018-08-29T17:45:26.899Z,21.00
2018-08-29T17:47:55.090Z,20.90
2018-08-29T17:50:23.289Z,20.90
2018-08-29T17:52:51.498Z,20.80
2018-08-29T17:55:20.418Z,20.70
2018-08-29T17:57:48.602Z,20.70
2018-08-29T18:00:16.787Z,20.70
2018-08-29T18:02:47.126Z,20.60
2018-08-29T18:05:15.317Z,20.50
2018-08-29T18:07:43.503Z,20.50
2018-08-29T18:10:11.703Z,20.40
2018-08-29T18:12:39.910Z,20.20
2018-08-29T18:15:08.106Z,20.10
2018-08-29T18:17:36.468Z,19.90
2018-08-29T18:20:04.510Z,19.80
2018-08-29T18:22:32.739Z,19.70
2018-08-29T18:25:00.946Z,19.60
2018-08-29T18:27:29.126Z,19.50
2018-08-29T18:29:57.333Z,19.50
2018-08-29T18:32:26.265Z,19.40
2018-08-29T18:34:54.525Z,19.40
2018-08-29T18:37:24.603Z,19.40
2018-08-29T18:39:52.802Z,19.30
2018-08-29T18:42:20.986Z,19.20
2018-08-29T18:44:49.186Z,19.20
2018-08-29T18:47:17.362Z,19.20
2018-08-29T18:49:45.550Z,19.10
2018-08-29T18:52:13.764Z,19.20
2018-08-29T18:54:42.233Z,19.30
2018-08-29T18:57:11.214Z,19.40
2018-08-29T18:59:39.389Z,19.40
2018-08-29T19:02:07.562Z,19.50
2018-08-29T19:04:35.738Z,19.50
2018-08-29T19:07:03.946Z,19.60
2018-08-29T19:09:32.169Z,19.80
2018-08-29T19:12:00.348Z,19.80
2018-08-29T19:14:28.695Z,19.70
2018-08-29T19:16:56.978Z,19.60
2018-08-29T19:19:25.272Z,19.50
2018-08-29T19:21:53.623Z,19.40
2018-08-29T19:24:21.798Z,19.30
2018-08-29T19:26:50.242Z,19.30
2018-08-29T19:29:19.055Z,19.30
2018-08-29T19:31:47.280Z,19.30
2018-08-29T19:34:15.516Z,19.20
2018-08-29T19:36:43.740Z,19.20
2018-08-29T19:39:11.915Z,19.10
2018-08-29T19:41:40.092Z,19.00
2018-08-29T19:44:08.385Z,18.80
2018-08-29T19:46:36.575Z,18.60
2018-08-29T19:49:05.091Z,18.40
2018-08-29T19:51:33.502Z,18.20
2018-08-29T19:54:01.624Z,18.00
2018-08-29T19:56:30.407Z,17.90
2018-08-29T19:58:59.521Z,17.80
2018-08-29T20:01:27.680Z,17.80
2018-08-29T20:03:56.858Z,17.70
2018-08-29T20:06:25.142Z,17.70
2018-08-29T20:08:53.357Z,17.70
2018-08-29T20:11:21.508Z,17.70
2018-08-29T20:13:49.716Z,17.60
2018-08-29T20:16:17.837Z,17.60
2018-08-29T20:18:51.358Z,17.50
2018-08-29T20:21:19.562Z,17.60
2018-08-29T20:23:47.768Z,17.60
2018-08-29T20:26:16.326Z,17.70
2018-08-29T20:28:44.478Z,17.60
2018-08-29T20:31:13.547Z,17.60
2018-08-29T20:33:41.771Z,17.70
2018-08-29T20:36:09.985Z,17.70
2018-08-29T20:38:38.286Z,17.60
2018-08-29T20:41:06.489Z,17.70
2018-08-29T20:43:35.538Z,17.60
2018-08-29T20:46:03.711Z,17.60
2018-08-29T20:48:31.927Z,17.60
2018-08-29T20:51:00.047Z,17.60
2018-08-29T20:53:28.258Z,17.60
2018-08-29T20:55:57.254Z,17.50
2018-08-29T20:58:25.459Z,17.50
2018-08-29T21:00:53.719Z,17.50
2018-08-29T21:03:21.805Z,17.60
2018-08-29T21:05:49.998Z,17.60
2018-08-29T21:08:18.178Z,17.60
2018-08-29T21:10:46.350Z,17.60
2018-08-29T21:13:14.539Z,17.60
2018-08-29T21:15:42.693Z,17.50
2018-08-29T21:18:10.895Z,17.50
2018-08-29T21:20:39.182Z,17.50
2018-08-29T21:23:08.182Z,17.40
2018-08-29T21:25:36.450Z,17.40
2018-08-29T21:28:28.173Z,17.40
2018-08-29T21:31:07.779Z,17.40
2018-08-29T21:33:54.146Z,17.40
2018-08-29T21:37:37.693Z,17.40
2018-08-29T21:40:05.930Z,17.40
2018-08-29T21:42:34.094Z,17.40
2018-08-29T21:45:13.582Z,17.40
2018-08-29T21:47:48.638Z,17.40
2018-08-29T21:50:28.482Z,17.30
2018-08-29T21:53:04.922Z,17.30
2018-08-29T21:55:44.425Z,17.30
2018-08-29T21:58:27.695Z,17.40
2018-08-29T22:01:13.074Z,17.40
2018-08-29T22:03:56.912Z,17.40
2018-08-29T22:06:25.117Z,17.50
2018-08-29T22:08:53.633Z,17.50
2018-08-29T22:11:23.845Z,17.50
2018-08-29T22:13:52.061Z,17.50
2018-08-29T22:16:20.315Z,17.50
2018-08-29T22:18:49.410Z,17.50
2018-08-29T22:21:17.587Z,17.50
2018-08-29T22:23:45.809Z,17.50
2018-08-29T22:26:13.974Z,17.50
2018-08-29T22:28:42.156Z,17.60
2018-08-29T22:31:10.449Z,17.60
2018-08-29T22:33:39.295Z,17.70
2018-08-29T22:36:07.552Z,17.70
2018-08-29T22:38:35.713Z,17.60
2018-08-29T22:41:03.961Z,17.60
2018-08-29T22:43:32.138Z,17.60
2018-08-29T22:46:01.071Z,17.60
2018-08-29T22:48:29.905Z,17.50
2018-08-29T22:50:58.054Z,17.50
2018-08-29T22:53:26.610Z,17.50
2018-08-29T22:55:54.842Z,17.40
2018-08-29T22:58:23.088Z,17.40
2018-08-29T23:00:51.253Z,17.40
2018-08-29T23:03:19.971Z,17.40
2018-08-29T23:05:48.141Z,17.50
2018-08-29T23:08:16.597Z,17.50
2018-08-29T23:10:44.765Z,17.40
2018-08-29T23:13:13.310Z,17.40
2018-08-29T23:15:41.487Z,17.40
2018-08-29T23:18:09.682Z,17.40
2018-08-29T23:20:37.857Z,17.40
2018-08-29T23:23:06.049Z,17.40
2018-08-29T23:25:34.211Z,17.40
2018-08-29T23:28:02.535Z,17.40
2018-08-29T23:30:30.695Z,17.40
2018-08-29T23:32:59.018Z,17.30
2018-08-29T23:35:27.194Z,17.30
2018-08-29T23:37:55.367Z,17.30
2018-08-29T23:40:23.533Z,17.20
2018-08-29T23:42:51.705Z,17.10
2018-08-29T23:45:19.901Z,17.10
2018-08-29T23:47:48.101Z,17.10
2018-08-29T23:50:16.251Z,17.00
2018-08-29T23:52:44.425Z,17.00
2018-08-29T23:55:12.872Z,17.10
2018-08-29T23:57:41.102Z,17.10
